Time;durP1;ratioP1;P1;durP2;ratioP2;P2;SDS_P1;SDS_P2;PMS_P1;PMS_P2;Temp;Humidity;BMP_temperature;BMP_pressure;BME280_temperature;BME280_humidity;BME280_pressure;Samples;Min_cycle;Max_cycle;Signal;HPM_P1;HPM_P2
2021/11/25 00:01:59;;;;;;;5.63;4.97;;;;;;;3.22;66.29;100289.66;1761764;79;21322;-54
2021/11/25 00:04:25;;;;;;;7.17;5.53;;;;;;;3.21;66.37;100290.56;1762073;79;21024;-54
2021/11/25 00:06:51;;;;;;;6.23;5.30;;;;;;;3.21;66.40;100290.56;1775358;78;21098;-54
2021/11/25 00:09:18;;;;;;;6.77;6.03;;;;;;;3.22;66.31;100295.44;1774019;78;21060;-54
2021/11/25 00:11:45;;;;;;;8.50;6.37;;;;;;;3.20;66.35;100292.78;1772669;78;21009;-54
2021/11/25 00:14:12;;;;;;;7.60;5.37;;;;;;;3.19;66.41;100287.02;1781860;78;20914;-54
2021/11/25 00:16:40;;;;;;;9.50;7.17;;;;;;;3.19;66.43;100292.80;1763264;79;21027;-55
2021/11/25 00:19:07;;;;;;;9.67;5.70;;;;;;;3.18;66.55;100296.34;1779859;78;21084;-54
2021/11/25 00:21:35;;;;;;;9.07;6.27;;;;;;;3.18;66.59;100291.02;1782193;78;21854;-54
2021/11/25 00:24:04;;;;;;;7.30;6.23;;;;;;;3.18;66.72;100299.01;1782700;78;20938;-55
2021/11/25 00:26:30;;;;;;;8.97;7.10;;;;;;;3.17;66.69;100288.81;1782597;78;20932;-54
2021/11/25 00:28:56;;;;;;;8.20;6.27;;;;;;;3.18;66.73;100288.36;1783192;78;20984;-55
2021/11/25 00:31:23;;;;;;;8.60;5.90;;;;;;;3.19;66.76;100282.16;1755973;79;21928;-55
2021/11/25 00:33:50;;;;;;;7.27;5.23;;;;;;;3.21;66.78;100287.90;1750568;80;21540;-54
2021/11/25 00:36:16;;;;;;;7.03;4.90;;;;;;;3.23;66.79;100282.57;1780357;78;20858;-55
2021/11/25 00:38:43;;;;;;;7.40;5.63;;;;;;;3.27;66.80;100281.63;1783084;78;20951;-54
2021/11/25 00:41:09;;;;;;;6.87;5.67;;;;;;;3.30;66.75;100292.25;1782401;78;20997;-54
2021/11/25 00:43:36;;;;;;;6.17;5.57;;;;;;;3.29;66.77;100288.70;1784989;78;21090;-55
2021/11/25 00:46:03;;;;;;;8.77;5.50;;;;;;;3.31;66.73;100286.03;1784393;78;20901;-53
2021/11/25 00:48:29;;;;;;;9.60;7.10;;;;;;;3.32;66.73;100283.33;1783214;78;20929;-54
2021/11/25 00:50:56;;;;;;;6.77;5.67;;;;;;;3.33;66.73;100277.56;1751852;80;21381;-55
2021/11/25 00:53:22;;;;;;;8.50;7.40;;;;;;;3.34;66.76;100281.54;1782379;78;20970;-55
2021/11/25 00:55:49;;;;;;;8.30;6.10;;;;;;;3.33;66.80;100279.77;1750324;80;21082;-54
2021/11/25 00:58:17;;;;;;;8.47;6.53;;;;;;;3.32;66.85;100282.00;1750486;80;20938;-55
2021/11/25 01:00:44;;;;;;;8.07;7.20;;;;;;;3.32;66.89;100281.11;1742952;80;20937;-54
2021/11/25 01:03:10;;;;;;;10.23;6.60;;;;;;;3.31;66.86;100281.59;1779903;78;21574;-55
2021/11/25 01:05:36;;;;;;;7.63;6.67;;;;;;;3.30;66.92;100271.84;1781273;78;21077;-55
2021/11/25 01:08:04;;;;;;;8.83;7.13;;;;;;;3.29;66.95;100278.06;1780760;78;21115;-54
2021/11/25 01:10:30;;;;;;;8.87;5.80;;;;;;;3.27;67.01;100272.31;1783547;78;21049;-54
2021/11/25 01:12:57;;;;;;;8.93;6.23;;;;;;;3.25;67.15;100261.68;1750209;79;21029;-54
2021/11/25 01:15:30;;;;;;;6.90;5.60;;;;;;;3.24;67.20;100270.55;1780123;78;21119;-54
2021/11/25 01:18:03;;;;;;;9.23;6.47;;;;;;;3.23;67.28;100267.45;1780754;78;21088;-55
2021/11/25 01:20:30;;;;;;;8.27;6.67;;;;;;;3.22;67.34;100261.73;1782354;78;21366;-54
2021/11/25 01:22:57;;;;;;;10.20;6.90;;;;;;;3.22;67.40;100256.41;1752721;78;21783;-54
2021/11/25 01:25:25;;;;;;;14.50;6.27;;;;;;;3.22;67.51;100252.88;1743270;80;20867;-54
2021/11/25 01:27:52;;;;;;;10.50;8.33;;;;;;;3.22;67.57;100262.18;1743347;80;20993;-55
2021/11/25 01:30:18;;;;;;;8.23;7.30;;;;;;;3.22;67.62;100259.52;1745385;80;20912;-54
2021/11/25 01:32:45;;;;;;;12.77;7.03;;;;;;;3.21;67.65;100257.75;1731001;81;21921;-55
2021/11/25 01:35:12;;;;;;;6.60;5.77;;;;;;;3.22;67.71;100254.20;1732168;81;21462;-55
2021/11/25 01:37:39;;;;;;;9.03;4.87;;;;;;;3.23;67.75;100251.98;1729519;81;21060;-54
2021/11/25 01:40:09;;;;;;;8.93;6.93;;;;;;;3.26;67.73;100254.58;1743162;80;21060;-54
2021/11/25 01:42:35;;;;;;;8.00;6.70;;;;;;;3.27;67.83;100255.91;1717556;81;22027;-55
2021/11/25 01:45:01;;;;;;;8.50;6.73;;;;;;;3.28;67.87;100254.13;1732018;80;21684;-53
2021/11/25 01:47:29;;;;;;;6.53;5.77;;;;;;;3.28;67.91;100251.47;1730530;81;21759;-54
2021/11/25 01:49:55;;;;;;;10.27;7.07;;;;;;;3.29;67.94;100254.56;1739301;80;22648;-54
2021/11/25 01:52:21;;;;;;;10.93;7.77;;;;;;;3.28;67.94;100254.13;1714723;81;21056;-54
2021/11/25 01:54:48;;;;;;;9.00;7.37;;;;;;;3.28;67.99;100257.67;1726922;80;21566;-53
2021/11/25 01:57:14;;;;;;;9.90;7.37;;;;;;;3.27;67.95;100255.91;1712970;81;21105;-54
2021/11/25 01:59:41;;;;;;;10.17;8.03;;;;;;;3.27;68.00;100259.89;1717216;81;21148;-53
2021/11/25 02:02:08;;;;;;;8.67;6.90;;;;;;;3.28;68.02;100260.78;1738960;80;21056;-54
2021/11/25 02:04:35;;;;;;;10.60;7.67;;;;;;;3.25;68.06;100259.02;1719542;81;21036;-54
2021/11/25 02:07:02;;;;;;;9.27;6.73;;;;;;;3.25;68.11;100255.03;1740134;80;21075;-54
2021/11/25 02:09:29;;;;;;;10.53;8.00;;;;;;;3.25;68.11;100256.36;1739616;80;21825;-54
2021/11/25 02:11:55;;;;;;;10.40;7.23;;;;;;;3.25;68.21;100257.69;1728193;80;21136;-54
2021/11/25 02:14:22;;;;;;;9.27;7.60;;;;;;;3.25;68.27;100257.69;1740776;80;21104;-54
2021/11/25 02:16:50;;;;;;;10.47;7.30;;;;;;;3.26;68.30;100255.91;1716154;81;21142;-53
2021/11/25 02:19:18;;;;;;;10.27;6.33;;;;;;;3.27;68.35;100262.55;1739237;80;22568;-54
2021/11/25 02:21:48;;;;;;;8.77;5.93;;;;;;;3.31;68.36;100258.98;1721140;81;21211;-54
2021/11/25 02:24:15;;;;;;;6.97;5.80;;;;;;;3.33;68.36;100263.81;1734898;81;21069;-54
2021/11/25 02:26:42;;;;;;;7.67;5.90;;;;;;;3.34;68.38;100264.24;1731677;81;21057;-54
2021/11/25 02:29:08;;;;;;;9.83;7.03;;;;;;;3.37;68.40;100268.22;1750920;79;21099;-54
2021/11/25 02:31:35;;;;;;;11.90;7.53;;;;;;;3.38;68.37;100267.32;1752522;80;21037;-54
2021/11/25 02:34:01;;;;;;;11.57;7.53;;;;;;;3.37;68.34;100269.55;1748760;79;21743;-54
2021/11/25 02:36:27;;;;;;;11.07;7.70;;;;;;;3.35;68.37;100260.69;1751675;80;21075;-53
2021/11/25 02:38:54;;;;;;;9.60;7.77;;;;;;;3.34;68.43;100266.02;1752253;80;21612;-54
2021/11/25 02:41:21;;;;;;;10.37;8.20;;;;;;;3.32;68.49;100258.05;1745994;81;20902;-54
2021/11/25 02:43:47;;;;;;;12.23;8.40;;;;;;;3.30;68.50;100249.23;1753751;80;21046;-54
2021/11/25 02:46:14;;;;;;;11.33;8.60;;;;;;;3.31;68.51;100252.77;1753857;80;21512;-55
2021/11/25 02:48:47;;;;;;;10.10;7.70;;;;;;;3.31;68.55;100254.98;1754287;80;20965;-53
2021/11/25 02:51:18;;;;;;;8.77;7.00;;;;;;;3.32;68.56;100254.50;1753666;79;21553;-54
2021/11/25 02:53:45;;;;;;;8.43;7.50;;;;;;;3.33;68.61;100246.52;1756029;80;20910;-54
2021/11/25 02:56:15;;;;;;;12.67;6.77;;;;;;;3.36;68.63;100245.61;1741863;81;20930;-54
2021/11/25 02:58:42;;;;;;;9.40;7.77;;;;;;;3.36;68.66;100236.30;1752375;80;21120;-54
2021/11/25 03:01:14;;;;;;;12.70;9.27;;;;;;;3.37;68.66;100236.28;1753089;79;21925;-54
2021/11/25 03:03:41;;;;;;;13.53;8.63;;;;;;;3.38;68.65;100240.70;1751281;79;21009;-54
2021/11/25 03:06:08;;;;;;;11.77;7.90;;;;;;;3.38;68.63;100234.05;1720721;81;21283;-54
2021/11/25 03:08:35;;;;;;;10.70;7.83;;;;;;;3.38;68.62;100242.48;1752103;80;20952;-54
2021/11/25 03:11:06;;;;;;;10.40;7.63;;;;;;;3.36;68.70;100232.30;1713345;81;22006;-54
2021/11/25 03:13:33;;;;;;;10.23;7.57;;;;;;;3.35;68.76;100243.39;1753434;80;21909;-53
2021/11/25 03:16:01;;;;;;;10.43;7.80;;;;;;;3.34;68.80;100234.97;1753375;80;20969;-54
2021/11/25 03:18:29;;;;;;;9.07;7.43;;;;;;;3.33;68.79;100244.30;1762639;79;21345;-54
2021/11/25 03:20:55;;;;;;;16.77;8.80;;;;;;;3.33;68.83;100241.64;1756838;79;21422;-53
2021/11/25 03:23:25;;;;;;;12.43;8.10;;;;;;;3.31;68.93;100239.47;1747672;79;21238;-54
2021/11/25 03:25:52;;;;;;;12.23;7.70;;;;;;;3.31;68.97;100243.46;1777816;78;20958;-53
2021/11/25 03:28:19;;;;;;;8.27;6.27;;;;;;;3.31;69.09;100235.48;1779013;78;20981;-54
2021/11/25 03:30:53;;;;;;;9.13;7.47;;;;;;;3.33;69.08;100234.98;1777895;78;20968;-54
2021/11/25 03:33:16;;;;;;;10.73;7.53;;;;;;;3.35;69.12;100237.19;1777509;78;20941;-53
2021/11/25 03:35:43;;;;;;;11.43;7.90;;;;;;;3.36;69.14;100230.52;1777879;78;21034;-54
2021/11/25 03:38:10;;;;;;;11.60;7.93;;;;;;;3.38;69.23;100226.52;1778020;78;20986;-54
2021/11/25 03:40:36;;;;;;;9.40;7.53;;;;;;;3.39;69.18;100228.28;1779273;78;20897;-53
2021/11/25 03:43:03;;;;;;;11.00;8.27;;;;;;;3.39;69.19;100226.51;1780092;78;20978;-54
2021/11/25 03:45:29;;;;;;;10.50;7.77;;;;;;;3.40;69.19;100227.39;1759155;79;20968;-54
2021/11/25 03:47:56;;;;;;;10.83;8.17;;;;;;;3.39;69.21;100233.16;1756310;79;21693;-54
2021/11/25 03:51:31;;;;;;;13.40;8.40;;;;;;;3.43;69.22;100232.66;1860073;75;26727;-55
2021/11/25 03:53:58;;;;;;;9.83;7.27;;;;;;;3.39;69.24;100226.95;1834046;75;20999;-55
2021/11/25 03:56:25;;;;;;;12.47;9.43;;;;;;;3.39;69.28;100229.17;1838466;75;22143;-54
2021/11/25 03:58:52;;;;;;;9.17;7.57;;;;;;;3.39;69.26;100227.84;1835355;77;21017;-54
2021/11/25 04:01:19;;;;;;;9.30;6.83;;;;;;;3.39;69.27;100225.17;1838223;77;21021;-55
2021/11/25 04:03:46;;;;;;;8.17;6.53;;;;;;;3.39;69.29;100222.52;1841945;77;21008;-54
2021/11/25 04:06:13;;;;;;;6.97;6.23;;;;;;;3.42;69.38;100225.56;1840721;77;21257;-54
2021/11/25 04:08:39;;;;;;;6.87;6.17;;;;;;;3.44;69.41;100219.78;1843515;77;21085;-54
2021/11/25 04:11:06;;;;;;;11.80;8.23;;;;;;;3.48;69.43;100224.64;1812084;77;21087;-54
2021/11/25 04:13:35;;;;;;;8.83;6.60;;;;;;;3.48;69.43;100229.52;1842154;75;22738;-54
2021/11/25 04:16:02;;;;;;;10.13;8.13;;;;;;;3.50;69.42;100222.81;1838938;77;21467;-55
2021/11/25 04:18:29;;;;;;;11.20;7.67;;;;;;;3.50;69.42;100224.14;1843970;77;21033;-54
2021/11/25 04:20:56;;;;;;;9.60;8.13;;;;;;;3.51;69.42;100228.56;1839523;77;21090;-54
2021/11/25 04:23:22;;;;;;;9.87;7.97;;;;;;;3.49;69.46;100228.58;1840427;77;21032;-55
2021/11/25 04:25:50;;;;;;;9.63;8.50;;;;;;;3.47;69.45;100226.41;1842143;77;21361;-55
2021/11/25 04:28:17;;;;;;;11.50;8.57;;;;;;;3.46;69.47;100224.65;1806573;78;21231;-54
2021/11/25 04:35:56;;;;;;;9.58;6.55;;;;;;;3.46;69.56;100219.77;1758138;79;21571;-54
2021/11/25 04:38:22;;;;;;;7.93;6.53;;;;;;;3.48;69.62;100218.86;1761602;79;21040;-54
2021/11/25 04:40:55;;;;;;;9.27;6.87;;;;;;;3.49;69.64;100219.27;1760293;79;21043;-55
2021/11/25 04:43:23;;;;;;;10.23;7.10;;;;;;;3.51;69.66;100209.94;1746133;80;21095;-53
2021/11/25 04:45:50;;;;;;;11.37;7.60;;;;;;;3.52;69.61;100203.27;1739151;80;21151;-55
2021/11/25 04:48:20;;;;;;;9.73;8.07;;;;;;;3.52;69.67;100205.93;1782240;78;20943;-54
2021/11/25 04:50:46;;;;;;;11.10;8.20;;;;;;;3.53;69.67;100205.03;1779687;78;21072;-54
2021/11/25 04:53:13;;;;;;;11.97;8.23;;;;;;;3.54;69.67;100205.47;1782264;78;21076;-54
2021/11/25 04:55:42;;;;;;;11.87;8.43;;;;;;;3.53;69.60;100203.70;1742060;80;21073;-54
2021/11/25 04:58:10;;;;;;;10.63;7.20;;;;;;;3.52;69.61;100207.27;1757535;80;21124;-54
2021/11/25 05:00:38;;;;;;;10.33;7.53;;;;;;;3.52;69.64;100197.06;1728191;78;20981;-54
2021/11/25 05:03:05;;;;;;;8.93;7.50;;;;;;;3.51;69.66;100200.63;1779725;78;20932;-55
2021/11/25 05:05:31;;;;;;;10.30;7.37;;;;;;;3.49;69.67;100196.64;1730530;78;20917;-54
2021/11/25 05:07:58;;;;;;;8.93;6.67;;;;;;;3.50;69.64;100204.18;1784990;78;20949;-55
2021/11/25 05:10:24;;;;;;;8.30;6.13;;;;;;;3.50;69.71;100200.19;1760320;79;21257;-55
2021/11/25 05:12:51;;;;;;;9.13;6.73;;;;;;;3.51;69.73;100199.29;1759859;79;21067;-55
2021/11/25 05:15:17;;;;;;;9.13;6.50;;;;;;;3.52;69.77;100199.28;1762667;79;20928;-55
2021/11/25 05:17:51;;;;;;;10.07;6.90;;;;;;;3.54;69.78;100199.27;1762463;79;20901;-54
2021/11/25 05:20:17;;;;;;;11.07;8.37;;;;;;;3.53;69.76;100198.38;1763452;79;20894;-54
2021/11/25 05:22:44;;;;;;;14.90;9.77;;;;;;;3.53;69.76;100205.03;1762145;79;22263;-54
2021/11/25 05:25:12;;;;;;;15.33;12.13;;;;;;;3.54;69.80;100194.83;1761095;79;21464;-54
2021/11/25 05:27:38;;;;;;;12.23;10.33;;;;;;;3.53;69.76;100198.38;1764387;79;21514;-53
2021/11/25 05:30:06;;;;;;;13.80;10.00;;;;;;;3.52;69.81;100203.27;1765974;79;21546;-54
2021/11/25 05:32:33;;;;;;;8.43;7.37;;;;;;;3.51;69.81;100198.84;1783289;78;21353;-54
2021/11/25 05:35:00;;;;;;;12.07;8.50;;;;;;;3.51;69.85;100205.95;1755242;80;21056;-54
2021/11/25 05:37:27;;;;;;;14.43;7.77;;;;;;;3.50;69.81;100205.52;1781310;78;21080;-53
2021/11/25 05:39:53;;;;;;;8.77;7.27;;;;;;;3.50;69.85;100206.39;1782294;78;21045;-54
2021/11/25 05:42:21;;;;;;;10.87;7.50;;;;;;;3.50;69.85;100201.07;1779788;78;21422;-54
2021/11/25 05:44:48;;;;;;;10.80;7.87;;;;;;;3.53;69.89;100205.48;1778747;79;21451;-54
2021/11/25 05:47:14;;;;;;;9.03;7.33;;;;;;;3.53;69.98;100195.72;1747126;80;21519;-54
2021/11/25 05:49:41;;;;;;;11.30;7.73;;;;;;;3.53;69.93;100194.39;1745126;80;21021;-54
2021/11/25 05:52:09;;;;;;;10.77;7.33;;;;;;;3.54;69.95;100197.48;1779555;78;21590;-54
2021/11/25 05:54:35;;;;;;;9.93;7.37;;;;;;;3.55;69.92;100192.59;1745734;80;21089;-53
2021/11/25 05:57:02;;;;;;;11.10;7.37;;;;;;;3.54;69.90;100200.59;1778797;78;21052;-54
2021/11/25 05:59:29;;;;;;;14.17;8.23;;;;;;;3.53;69.89;100205.03;1783325;78;21826;-54
2021/11/25 06:01:55;;;;;;;11.77;9.27;;;;;;;3.53;69.91;100202.83;1781639;78;20973;-53
2021/11/25 06:04:22;;;;;;;14.93;8.00;;;;;;;3.50;69.93;100202.41;1745004;80;21283;-55
2021/11/25 06:06:49;;;;;;;15.00;8.43;;;;;;;3.50;69.93;100205.52;1755967;79;21700;-53
2021/11/25 06:09:15;;;;;;;10.30;7.53;;;;;;;3.50;69.95;100209.50;1759055;79;21056;-54
2021/11/25 06:11:41;;;;;;;12.43;7.63;;;;;;;3.51;69.95;100206.83;1757021;79;21108;-54
2021/11/25 06:14:08;;;;;;;12.53;8.80;;;;;;;3.51;69.97;100206.83;1754388;79;21046;-54
2021/11/25 06:16:35;;;;;;;12.00;9.07;;;;;;;3.52;70.01;100208.59;1755791;79;21053;-54
2021/11/25 06:19:01;;;;;;;20.70;10.50;;;;;;;3.54;69.99;100209.91;1756269;79;21130;-53
2021/11/25 06:21:30;;;;;;;15.13;9.63;;;;;;;3.54;69.99;100208.13;1756073;79;21116;-53
2021/11/25 06:23:56;;;;;;;15.23;8.47;;;;;;;3.56;70.00;100205.45;1755803;79;21135;-54
2021/11/25 06:26:22;;;;;;;13.20;8.43;;;;;;;3.56;69.99;100198.80;1756071;79;21067;-53
2021/11/25 06:28:50;;;;;;;13.47;8.93;;;;;;;3.56;69.98;100205.01;1754635;79;21049;-54
2021/11/25 06:31:16;;;;;;;17.60;10.67;;;;;;;3.55;69.96;100203.25;1755825;79;21518;-54
2021/11/25 06:33:43;;;;;;;10.87;8.07;;;;;;;3.54;70.00;100202.81;1753772;79;22262;-55
2021/11/25 06:36:09;;;;;;;10.37;7.43;;;;;;;3.56;70.03;100204.13;1756890;79;21079;-54
2021/11/25 06:38:36;;;;;;;13.40;8.80;;;;;;;3.56;70.02;100206.34;1756099;79;21049;-54
2021/11/25 06:41:07;;;;;;;15.13;9.93;;;;;;;3.58;70.05;100207.17;1752802;79;22586;-54
2021/11/25 06:43:31;;;;;;;16.00;10.90;;;;;;;3.60;70.10;100211.16;1757934;79;21077;-54
2021/11/25 06:45:57;;;;;;;15.67;11.03;;;;;;;3.60;70.09;100205.38;1755597;79;21040;-54
2021/11/25 06:48:25;;;;;;;20.03;11.17;;;;;;;3.62;70.13;100204.92;1763159;79;21135;-54
2021/11/25 06:50:51;;;;;;;17.40;10.50;;;;;;;3.64;70.14;100206.23;1759908;80;21100;-53
2021/11/25 06:53:18;;;;;;;20.47;10.57;;;;;;;3.64;70.04;100203.13;1764892;80;21021;-53
2021/11/25 06:55:44;;;;;;;23.73;13.23;;;;;;;3.65;70.04;100214.66;1766954;79;21407;-54
2021/11/25 06:58:11;;;;;;;15.77;9.87;;;;;;;3.64;70.05;100216.89;1764617;79;20893;-53
2021/11/25 07:00:37;;;;;;;22.77;10.03;;;;;;;3.62;70.10;100215.57;1768332;79;22202;-54
2021/11/25 07:03:04;;;;;;;18.53;9.60;;;;;;;3.63;70.14;100216.00;1761956;79;20907;-54
2021/11/25 07:05:31;;;;;;;18.23;9.50;;;;;;;3.65;70.09;100212.00;1764525;79;20874;-54
2021/11/25 07:07:58;;;;;;;16.07;9.67;;;;;;;3.68;70.05;100211.94;1770012;79;20917;-53
2021/11/25 07:10:25;;;;;;;19.70;9.67;;;;;;;3.67;70.07;100202.19;1789513;78;21427;-54
2021/11/25 07:12:52;;;;;;;19.97;10.00;;;;;;;3.69;70.07;100211.92;1786307;78;21813;-54
2021/11/25 07:15:20;;;;;;;19.53;9.43;;;;;;;3.70;70.04;100207.48;1781807;80;20871;-54
2021/11/25 07:17:48;;;;;;;28.13;10.57;;;;;;;3.71;70.04;100214.13;1750129;81;20887;-53
2021/11/25 07:20:15;;;;;;;17.17;9.83;;;;;;;3.73;70.02;100212.78;1765922;79;20956;-54
2021/11/25 07:22:42;;;;;;;18.60;10.40;;;;;;;3.72;70.03;100206.56;1765028;80;20911;-54
2021/11/25 07:25:10;;;;;;;21.70;10.97;;;;;;;3.72;70.07;100213.22;1767281;79;22304;-54
2021/11/25 07:27:37;;;;;;;25.70;11.50;;;;;;;3.73;70.01;100210.11;1763884;79;21049;-54
2021/11/25 07:30:08;;;;;;;23.83;10.43;;;;;;;3.74;70.00;100211.88;1761210;79;21084;-55
2021/11/25 07:32:35;;;;;;;26.47;9.97;;;;;;;3.74;69.99;100203.41;1759957;79;21136;-54
2021/11/25 07:35:04;;;;;;;28.60;10.07;;;;;;;3.76;69.98;100208.72;1761946;79;21068;-54
2021/11/25 07:37:30;;;;;;;29.50;11.47;;;;;;;3.78;69.92;100212.25;1764741;79;22213;-55
2021/11/25 07:39:58;;;;;;;15.73;9.97;;;;;;;3.79;69.91;100215.34;1767998;79;20937;-54
2021/11/25 07:42:24;;;;;;;23.70;9.57;;;;;;;3.78;69.87;100210.47;1764349;79;20926;-54
2021/11/25 07:44:51;;;;;;;21.90;11.97;;;;;;;3.80;69.83;100210.01;1763840;79;21052;-54
2021/11/25 07:47:22;;;;;;;23.10;10.43;;;;;;;3.81;69.79;100210.89;1764574;79;22243;-54
2021/11/25 07:49:46;;;;;;;22.43;12.53;;;;;;;3.81;69.78;100210.89;1760897;79;21008;-55
2021/11/25 07:52:12;;;;;;;17.43;11.93;;;;;;;3.83;69.71;100210.88;1762500;79;21420;-55
2021/11/25 07:54:39;;;;;;;11.00;8.77;;;;;;;3.83;69.71;100206.87;1763016;79;21692;-54
2021/11/25 07:57:07;;;;;;;17.23;8.53;;;;;;;3.85;69.64;100206.38;1760342;79;21068;-53
2021/11/25 07:59:34;;;;;;;20.37;8.63;;;;;;;3.85;69.62;100206.38;1760900;79;21142;-55
2021/11/25 08:02:01;;;;;;;13.83;9.27;;;;;;;3.87;69.70;100210.80;1760669;79;22521;-55
2021/11/25 08:04:28;;;;;;;12.90;8.67;;;;;;;3.89;69.67;100208.12;1763704;79;21546;-55
2021/11/25 08:06:54;;;;;;;14.47;10.60;;;;;;;3.91;69.65;100211.65;1761053;79;21081;-55
2021/11/25 08:09:21;;;;;;;19.77;9.40;;;;;;;3.92;69.55;100213.37;1762541;79;21092;-54
2021/11/25 08:11:47;;;;;;;18.37;10.37;;;;;;;3.92;69.53;100206.27;1763481;79;21081;-54
2021/11/25 08:14:14;;;;;;;15.23;9.20;;;;;;;3.90;69.47;100206.77;1761996;79;21278;-53
2021/11/25 08:16:40;;;;;;;15.53;10.50;;;;;;;3.90;69.53;100207.22;1763010;79;22434;-54
2021/11/25 08:19:07;;;;;;;14.27;9.50;;;;;;;3.90;69.57;100209.44;1764024;79;21099;-54
2021/11/25 08:21:34;;;;;;;17.13;9.20;;;;;;;3.93;69.58;100212.48;1760497;79;21130;-54
2021/11/25 08:24:00;;;;;;;22.83;12.97;;;;;;;3.94;69.56;100208.92;1763260;79;21355;-54
2021/11/25 08:26:27;;;;;;;22.30;14.67;;;;;;;3.94;69.57;100208.47;1763599;79;21478;-54
2021/11/25 08:28:53;;;;;;;18.10;12.13;;;;;;;3.96;69.61;100208.00;1763577;79;21068;-53
2021/11/25 08:31:20;;;;;;;16.73;12.70;;;;;;;3.98;69.54;100207.99;1762172;79;21131;-54
2021/11/25 08:33:46;;;;;;;17.27;12.90;;;;;;;3.99;69.54;100203.98;1762857;79;21056;-54
2021/11/25 08:36:14;;;;;;;17.50;11.13;;;;;;;4.01;69.54;100204.81;1763325;79;21075;-54
2021/11/25 08:38:40;;;;;;;15.97;10.73;;;;;;;4.03;69.50;100196.80;1761163;79;22847;-54
2021/11/25 08:41:07;;;;;;;14.80;10.07;;;;;;;4.04;69.43;100192.80;1763225;79;21074;-54
2021/11/25 08:43:33;;;;;;;14.73;9.97;;;;;;;4.07;69.41;100192.75;1761679;79;21439;-54
2021/11/25 08:46:02;;;;;;;12.50;9.47;;;;;;;4.11;69.36;100189.13;1761633;79;20965;-54
2021/11/25 08:48:29;;;;;;;12.17;9.30;;;;;;;4.14;69.33;100194.87;1763441;79;21045;-55
2021/11/25 08:50:55;;;;;;;11.40;9.20;;;;;;;4.16;69.28;100179.30;1778613;78;21994;-55
2021/11/25 08:53:23;;;;;;;16.63;10.67;;;;;;;4.21;69.21;100179.66;1749222;80;21036;-55
2021/11/25 08:55:50;;;;;;;14.13;9.63;;;;;;;4.24;69.03;100182.29;1787251;78;20902;-54
2021/11/25 08:58:17;;;;;;;12.33;9.83;;;;;;;4.24;68.93;100179.17;1785212;79;21301;-55
2021/11/25 09:00:44;;;;;;;13.13;9.67;;;;;;;4.25;68.92;100181.39;1749460;80;22342;-54
2021/11/25 09:03:12;;;;;;;12.90;9.90;;;;;;;4.26;68.85;100173.80;1748867;80;22452;-54
2021/11/25 09:05:39;;;;;;;17.17;8.90;;;;;;;4.27;68.71;100170.23;1757583;80;22187;-55
2021/11/25 09:08:05;;;;;;;16.47;10.17;;;;;;;4.29;68.71;100163.98;1781243;78;21045;-55
2021/11/25 09:10:35;;;;;;;14.50;10.23;;;;;;;4.33;68.59;100165.70;1750420;80;22511;-54
2021/11/25 09:13:03;;;;;;;13.30;9.60;;;;;;;4.34;68.56;100159.92;1780605;78;21069;-54
2021/11/25 09:15:38;;;;;;;13.20;9.30;;;;;;;4.38;68.68;100158.95;1782455;78;21104;-55
2021/11/25 09:18:03;;;;;;;16.43;9.73;;;;;;;4.41;68.67;100153.58;1781813;78;21068;-55
2021/11/25 09:20:33;;;;;;;14.03;10.23;;;;;;;4.43;68.61;100151.30;1757130;80;21084;-54
2021/11/25 09:23:03;;;;;;;13.40;9.90;;;;;;;4.45;68.64;100144.61;1782298;79;21095;-55
2021/11/25 09:25:29;;;;;;;15.33;10.57;;;;;;;4.47;68.48;100146.34;1761867;80;20894;-55
2021/11/25 09:27:56;;;;;;;21.63;15.80;;;;;;;4.48;68.50;100141.45;1786792;78;21143;-54
2021/11/25 09:30:22;;;;;;;20.87;17.00;;;;;;;4.51;68.56;100133.38;1786407;78;20862;-55
2021/11/25 09:32:50;;;;;;;17.83;9.77;;;;;;;4.53;68.44;100135.56;1786987;78;20863;-54
2021/11/25 09:35:17;;;;;;;18.80;10.93;;;;;;;4.58;68.50;100135.50;1756619;80;20878;-54
2021/11/25 09:37:45;;;;;;;14.33;9.97;;;;;;;4.63;68.58;100133.62;1780584;78;22195;-55
2021/11/25 09:40:22;;;;;;;17.17;11.53;;;;;;;4.68;68.47;100129.56;1752600;80;21768;-54
2021/11/25 09:42:42;;;;;;;20.13;13.03;;;;;;;4.73;68.39;100129.00;1756584;80;21021;-55
2021/11/25 09:45:09;;;;;;;20.87;14.60;;;;;;;4.77;68.39;100131.57;1753384;80;21061;-55
2021/11/25 09:47:36;;;;;;;18.90;13.73;;;;;;;4.81;68.13;100129.73;1759716;80;21036;-54
2021/11/25 09:50:04;;;;;;;11.67;10.03;;;;;;;4.82;67.99;100120.38;1765557;79;21123;-54
2021/11/25 09:52:32;;;;;;;16.70;12.97;;;;;;;4.84;67.95;100133.70;1762468;80;20982;-55
2021/11/25 09:54:58;;;;;;;13.80;11.30;;;;;;;4.85;67.96;100121.64;1784836;78;20981;-54
2021/11/25 09:57:25;;;;;;;15.60;11.57;;;;;;;4.87;67.96;100121.16;1778463;78;20895;-54
2021/11/25 09:59:51;;;;;;;15.13;10.17;;;;;;;4.89;67.98;100118.47;1762592;79;20969;-54
2021/11/25 10:02:18;;;;;;;15.83;12.37;;;;;;;4.89;67.94;100113.13;1765791;79;21661;-54
2021/11/25 10:04:44;;;;;;;17.43;15.07;;;;;;;4.89;67.88;100113.13;1764979;79;22036;-55
2021/11/25 10:07:11;;;;;;;17.77;14.13;;;;;;;4.90;67.89;100119.78;1765586;79;20938;-55
2021/11/25 10:09:40;;;;;;;14.10;12.57;;;;;;;4.92;67.96;100112.63;1764560;79;21858;-54
2021/11/25 10:12:38;;;;;;;15.53;12.30;;;;;;;4.93;67.89;100109.52;1764587;79;21388;-55
2021/11/25 10:15:29;;;;;;;18.00;10.83;;;;;;;4.94;67.81;100105.91;1763287;79;20934;-54
2021/11/25 10:18:03;;;;;;;13.07;9.83;;;;;;;4.94;67.71;100108.12;1764593;79;21785;-54
2021/11/25 10:20:33;;;;;;;13.30;10.97;;;;;;;4.95;67.53;100098.33;1764174;79;20985;-54
2021/11/25 10:23:13;;;;;;;12.60;10.07;;;;;;;4.95;67.50;100097.00;1760708;79;21033;-54
2021/11/25 10:25:49;;;;;;;17.67;12.53;;;;;;;4.93;67.31;100094.36;1764096;80;21422;-55
2021/11/25 10:28:24;;;;;;;14.60;11.30;;;;;;;4.92;67.21;100090.41;1760790;80;21125;-54
2021/11/25 10:30:54;;;;;;;21.55;10.68;;;;;;;4.89;67.03;100086.45;1761034;79;21116;-55
2021/11/25 10:33:25;;;;;;;29.63;19.30;;;;;;;4.89;67.06;100085.13;1764423;80;21025;-54
2021/11/25 10:36:29;;;;;;;14.23;11.97;;;;;;;4.91;67.02;100075.31;1765548;79;20945;-54
2021/11/25 10:38:46;;;;;;;12.40;9.03;;;;;;;4.91;67.02;100065.98;1755887;79;20957;-55
2021/11/25 10:41:14;;;;;;;11.38;9.78;;;;;;;4.92;66.90;100067.28;1761805;79;22345;-54
2021/11/25 10:43:41;;;;;;;11.33;9.87;;;;;;;4.94;66.90;100064.11;1764470;79;20929;-54
2021/11/25 10:46:09;;;;;;;13.00;9.67;;;;;;;4.97;66.83;100061.84;1734725;81;21418;-55
2021/11/25 10:48:43;;;;;;;12.63;9.97;;;;;;;4.98;66.72;100060.94;1763574;80;20885;-54
2021/11/25 10:51:31;;;;;;;18.25;11.12;;;;;;;5.00;66.59;100056.45;1763675;80;27865;-55
2021/11/25 10:54:18;;;;;;;9.77;7.93;;;;;;;5.01;66.32;100054.21;1776983;79;22469;-54
2021/11/25 10:56:51;;;;;;;9.93;8.73;;;;;;;5.00;66.20;100055.12;1782175;78;21347;-55
2021/11/25 10:59:21;;;;;;;12.53;8.57;;;;;;;4.98;65.95;100046.71;1749701;80;21017;-55
2021/11/25 11:01:50;;;;;;;12.27;6.90;;;;;;;4.97;65.79;100039.16;1780074;78;21004;-54
2021/11/25 11:04:17;;;;;;;9.60;7.57;;;;;;;4.97;65.41;100035.16;1780242;78;21048;-54
2021/11/25 11:06:45;;;;;;;12.93;9.13;;;;;;;4.97;65.18;100039.16;1779050;78;21053;-54
2021/11/25 11:09:35;;;;;;;10.00;8.17;;;;;;;4.98;64.98;100030.70;1742850;81;21112;-55
2021/11/25 11:12:24;;;;;;;10.57;8.77;;;;;;;4.99;64.84;100021.34;1747421;80;22202;-55
2021/11/25 11:14:55;;;;;;;7.43;6.63;;;;;;;5.00;64.57;100018.22;1754361;80;20871;-54
2021/11/25 11:17:33;;;;;;;9.27;7.23;;;;;;;5.00;64.27;100014.22;1752087;80;21609;-54
2021/11/25 11:20:16;;;;;;;9.20;6.87;;;;;;;4.98;63.96;100010.70;1756582;80;21692;-55
2021/11/25 11:22:51;;;;;;;19.03;11.83;;;;;;;4.98;64.01;100005.36;1746966;80;22394;-54
2021/11/25 11:25:20;;;;;;;9.95;7.22;;;;;;;4.99;63.93;100000.00;1782289;78;27559;-54
2021/11/25 11:27:50;;;;;;;6.67;5.97;;;;;;;4.99;63.58;99992.45;1746103;81;21113;-55
2021/11/25 11:30:16;;;;;;;5.33;4.80;;;;;;;4.97;63.18;99988.48;1777579;79;21080;-55
2021/11/25 11:35:15;;;;;;;8.03;3.80;;;;;;;4.95;61.99;99984.95;1757368;79;22648;-54
2021/11/25 11:37:42;;;;;;;3.60;3.07;;;;;;;4.88;61.35;99978.00;1736577;81;21125;-55
2021/11/25 11:40:11;;;;;;;6.83;3.70;;;;;;;4.87;60.89;99984.24;1706512;81;22376;-55